sensor_id;sensor_type;location;lat;lon;timestamp;pressure;altitude;pressure_sealevel;temperature;humidity
1652;BME280;823;49.028;8.454;2022-09-09T00:02:57;100002.53;;;19.97;60.23
1652;BME280;823;49.028;8.454;2022-09-09T00:08:02;99994.53;;;19.87;60.58
1652;BME280;823;49.028;8.454;2022-09-09T00:18:31;100007.53;;;20.00;60.46
1652;BME280;823;49.028;8.454;2022-09-09T00:23:35;100003.34;;;19.97;60.56
1652;BME280;823;49.028;8.454;2022-09-09T00:29:00;100009.53;;;19.96;60.28
1652;BME280;823;49.028;8.454;2022-09-09T00:34:19;100000.34;;;20.02;59.70
1652;BME280;823;49.028;8.454;2022-09-09T00:44:37;99999.53;;;19.90;60.21
1652;BME280;823;49.028;8.454;2022-09-09T01:00:50;100009.66;;;19.95;60.73
1652;BME280;823;49.028;8.454;2022-09-09T01:06:01;100005.75;;;19.89;61.20
1652;BME280;823;49.028;8.454;2022-09-09T01:11:10;100013.97;;;19.96;61.17
1652;BME280;823;49.028;8.454;2022-09-09T01:16:17;100017.56;;;19.83;61.02
1652;BME280;823;49.028;8.454;2022-09-09T01:21:35;100024.84;;;19.91;60.60
1652;BME280;823;49.028;8.454;2022-09-09T01:26:41;100042.47;;;19.89;60.86
1652;BME280;823;49.028;8.454;2022-09-09T01:31:58;100039.38;;;19.84;60.02
1652;BME280;823;49.028;8.454;2022-09-09T01:37:08;100029.44;;;19.76;59.68
1652;BME280;823;49.028;8.454;2022-09-09T01:42:12;100040.53;;;19.68;60.36
1652;BME280;823;49.028;8.454;2022-09-09T01:47:15;100044.69;;;19.60;61.18
1652;BME280;823;49.028;8.454;2022-09-09T01:52:15;100039.78;;;19.44;62.43
1652;BME280;823;49.028;8.454;2022-09-09T01:57:24;100032.38;;;19.26;64.18
1652;BME280;823;49.028;8.454;2022-09-09T02:08:14;100036.84;;;19.13;65.64
1652;BME280;823;49.028;8.454;2022-09-09T02:13:20;100018.13;;;19.06;65.95
1652;BME280;823;49.028;8.454;2022-09-09T02:18:27;100007.13;;;19.01;66.48
1652;BME280;823;49.028;8.454;2022-09-09T02:23:29;100015.34;;;18.96;66.86
1652;BME280;823;49.028;8.454;2022-09-09T02:28:32;99999.63;;;18.96;66.55
1652;BME280;823;49.028;8.454;2022-09-09T02:33:42;99995.81;;;19.00;65.98
1652;BME280;823;49.028;8.454;2022-09-09T02:38:46;99986.53;;;18.96;66.01
1652;BME280;823;49.028;8.454;2022-09-09T02:43:50;99985.56;;;18.97;66.21
1652;BME280;823;49.028;8.454;2022-09-09T02:54:27;99984.72;;;18.97;66.28
1652;BME280;823;49.028;8.454;2022-09-09T02:59:31;99979.72;;;18.94;65.80
1652;BME280;823;49.028;8.454;2022-09-09T03:04:31;99985.91;;;18.93;65.76
1652;BME280;823;49.028;8.454;2022-09-09T03:09:32;99981.41;;;18.95;65.97
1652;BME280;823;49.028;8.454;2022-09-09T03:14:34;99981.50;;;18.93;66.33
1652;BME280;823;49.028;8.454;2022-09-09T03:19:35;99988.09;;;18.99;66.26
1652;BME280;823;49.028;8.454;2022-09-09T03:24:36;99990.59;;;19.00;65.76
1652;BME280;823;49.028;8.454;2022-09-09T03:29:36;100007.84;;;18.92;66.06
1652;BME280;823;49.028;8.454;2022-09-09T03:34:36;100016.16;;;18.97;65.60
1652;BME280;823;49.028;8.454;2022-09-09T03:39:40;100004.03;;;18.96;66.09
1652;BME280;823;49.028;8.454;2022-09-09T03:44:40;100001.88;;;19.01;65.52
1652;BME280;823;49.028;8.454;2022-09-09T03:49:41;99995.59;;;19.03;64.72
1652;BME280;823;49.028;8.454;2022-09-09T03:54:42;100005.69;;;18.97;64.45
1652;BME280;823;49.028;8.454;2022-09-09T03:59:43;99993.06;;;18.91;64.17
1652;BME280;823;49.028;8.454;2022-09-09T04:04:43;100001.03;;;18.89;64.03
1652;BME280;823;49.028;8.454;2022-09-09T04:09:43;100007.22;;;18.88;63.79
1652;BME280;823;49.028;8.454;2022-09-09T04:14:44;100005.44;;;18.88;64.05
1652;BME280;823;49.028;8.454;2022-09-09T04:19:44;100012.22;;;18.91;63.98
1652;BME280;823;49.028;8.454;2022-09-09T04:24:44;100020.72;;;18.95;63.67
1652;BME280;823;49.028;8.454;2022-09-09T04:29:45;100021.66;;;18.94;63.71
1652;BME280;823;49.028;8.454;2022-09-09T04:34:45;100023.09;;;18.98;64.13
1652;BME280;823;49.028;8.454;2022-09-09T04:39:47;100030.50;;;19.04;63.88
1652;BME280;823;49.028;8.454;2022-09-09T04:44:48;100035.16;;;19.12;63.62
1652;BME280;823;49.028;8.454;2022-09-09T04:49:48;100044.72;;;19.13;63.62
1652;BME280;823;49.028;8.454;2022-09-09T04:54:48;100042.97;;;19.25;63.45
1652;BME280;823;49.028;8.454;2022-09-09T04:59:48;100043.22;;;19.33;62.63
1652;BME280;823;49.028;8.454;2022-09-09T05:04:49;100055.25;;;19.35;62.47
1652;BME280;823;49.028;8.454;2022-09-09T05:09:49;100050.75;;;19.37;62.81
1652;BME280;823;49.028;8.454;2022-09-09T05:14:50;100056.56;;;19.41;62.04
1652;BME280;823;49.028;8.454;2022-09-09T05:19:50;100052.78;;;19.45;62.32
1652;BME280;823;49.028;8.454;2022-09-09T05:24:50;100068.28;;;19.48;62.21
1652;BME280;823;49.028;8.454;2022-09-09T05:29:51;100062.81;;;19.51;62.06
1652;BME280;823;49.028;8.454;2022-09-09T05:34:51;100066.75;;;19.57;62.00
1652;BME280;823;49.028;8.454;2022-09-09T05:39:52;100071.88;;;19.59;61.94
1652;BME280;823;49.028;8.454;2022-09-09T05:44:53;100061.88;;;19.64;61.83
1652;BME280;823;49.028;8.454;2022-09-09T05:49:54;100074.88;;;19.65;61.11
1652;BME280;823;49.028;8.454;2022-09-09T05:54:55;100063.31;;;19.68;60.82
1652;BME280;823;49.028;8.454;2022-09-09T05:59:57;100071.78;;;19.71;61.06
1652;BME280;823;49.028;8.454;2022-09-09T06:04:57;100072.13;;;19.78;60.96
1652;BME280;823;49.028;8.454;2022-09-09T06:09:57;100082.22;;;19.96;59.86
1652;BME280;823;49.028;8.454;2022-09-09T06:14:59;100083.75;;;20.21;58.36
1652;BME280;823;49.028;8.454;2022-09-09T06:19:59;100078.50;;;20.32;57.46
1652;BME280;823;49.028;8.454;2022-09-09T06:24:59;100079.31;;;20.44;57.80
1652;BME280;823;49.028;8.454;2022-09-09T06:30:01;100075.13;;;20.53;58.49
1652;BME280;823;49.028;8.454;2022-09-09T06:35:03;100078.34;;;20.56;58.21
1652;BME280;823;49.028;8.454;2022-09-09T06:40:03;100075.00;;;20.66;57.83
1652;BME280;823;49.028;8.454;2022-09-09T06:45:04;100080.03;;;20.69;57.28
1652;BME280;823;49.028;8.454;2022-09-09T06:50:05;100070.06;;;20.84;57.40
1652;BME280;823;49.028;8.454;2022-09-09T06:55:07;100069.03;;;20.96;56.93
1652;BME280;823;49.028;8.454;2022-09-09T07:00:08;100072.34;;;21.09;56.88
1652;BME280;823;49.028;8.454;2022-09-09T07:05:09;100075.34;;;21.05;57.48
1652;BME280;823;49.028;8.454;2022-09-09T07:10:09;100075.50;;;20.92;57.84
1652;BME280;823;49.028;8.454;2022-09-09T07:15:10;100069.81;;;20.87;58.48
1652;BME280;823;49.028;8.454;2022-09-09T07:20:11;100075.50;;;20.92;58.94
1652;BME280;823;49.028;8.454;2022-09-09T07:25:11;100073.94;;;21.01;59.13
1652;BME280;823;49.028;8.454;2022-09-09T07:30:12;100083.19;;;21.16;58.40
1652;BME280;823;49.028;8.454;2022-09-09T07:35:12;100092.09;;;21.25;57.70
1652;BME280;823;49.028;8.454;2022-09-09T07:40:13;100087.94;;;21.22;57.33
1652;BME280;823;49.028;8.454;2022-09-09T07:45:13;100084.34;;;21.23;58.42
1652;BME280;823;49.028;8.454;2022-09-09T07:50:14;100090.19;;;21.27;58.71
1652;BME280;823;49.028;8.454;2022-09-09T07:55:15;100091.03;;;21.27;57.20
1652;BME280;823;49.028;8.454;2022-09-09T08:00:15;100086.09;;;21.34;56.57
1652;BME280;823;49.028;8.454;2022-09-09T08:05:15;100087.56;;;21.48;55.47
1652;BME280;823;49.028;8.454;2022-09-09T08:10:16;100102.63;;;21.57;54.53
1652;BME280;823;49.028;8.454;2022-09-09T08:15:18;100102.47;;;21.80;53.56
1652;BME280;823;49.028;8.454;2022-09-09T08:20:18;100108.34;;;22.24;52.65
1652;BME280;823;49.028;8.454;2022-09-09T08:25:19;100100.47;;;22.85;52.33
1652;BME280;823;49.028;8.454;2022-09-09T08:30:19;100112.81;;;22.84;51.46
1652;BME280;823;49.028;8.454;2022-09-09T08:35:19;100123.50;;;22.32;51.80
1652;BME280;823;49.028;8.454;2022-09-09T08:40:26;100123.00;;;22.48;52.12
1652;BME280;823;49.028;8.454;2022-09-09T08:46:09;100122.44;;;22.35;53.02
1652;BME280;823;49.028;8.454;2022-09-09T08:51:13;100120.25;;;22.19;53.10
1652;BME280;823;49.028;8.454;2022-09-09T08:56:16;100130.69;;;22.30;54.10
1652;BME280;823;49.028;8.454;2022-09-09T09:01:35;100139.41;;;22.52;51.96
1652;BME280;823;49.028;8.454;2022-09-09T09:12:19;100137.50;;;22.33;54.66
1652;BME280;823;49.028;8.454;2022-09-09T09:17:21;100130.91;;;22.17;55.22
1652;BME280;823;49.028;8.454;2022-09-09T09:22:28;100126.56;;;22.06;56.16
1652;BME280;823;49.028;8.454;2022-09-09T09:27:32;100130.56;;;22.01;54.46
1652;BME280;823;49.028;8.454;2022-09-09T09:32:34;100112.81;;;22.03;54.89
1652;BME280;823;49.028;8.454;2022-09-09T09:37:36;100120.03;;;22.01;51.84
1652;BME280;823;49.028;8.454;2022-09-09T09:42:38;100122.53;;;22.02;52.22
1652;BME280;823;49.028;8.454;2022-09-09T09:47:57;100132.84;;;22.15;50.02
1652;BME280;823;49.028;8.454;2022-09-09T09:53:22;100118.69;;;22.47;50.46
1652;BME280;823;49.028;8.454;2022-09-09T09:58:25;100115.53;;;22.53;49.34
1652;BME280;823;49.028;8.454;2022-09-09T10:03:30;100117.28;;;22.93;48.66
1652;BME280;823;49.028;8.454;2022-09-09T10:08:34;100116.69;;;23.00;48.75
1652;BME280;823;49.028;8.454;2022-09-09T10:14:04;100113.38;;;23.07;47.47
1652;BME280;823;49.028;8.454;2022-09-09T10:19:13;100123.13;;;23.07;48.17
1652;BME280;823;49.028;8.454;2022-09-09T10:24:40;100115.09;;;23.18;46.46
1652;BME280;823;49.028;8.454;2022-09-09T10:51:22;100104.78;;;23.44;46.14
1652;BME280;823;49.028;8.454;2022-09-09T10:56:23;100103.78;;;23.65;46.39
1652;BME280;823;49.028;8.454;2022-09-09T11:01:29;100100.25;;;23.84;43.90
1652;BME280;823;49.028;8.454;2022-09-09T11:06:37;100098.19;;;23.88;42.88
1652;BME280;823;49.028;8.454;2022-09-09T11:11:45;100092.91;;;23.88;42.90
1652;BME280;823;49.028;8.454;2022-09-09T11:16:52;100084.59;;;24.10;43.41
1652;BME280;823;49.028;8.454;2022-09-09T11:21:55;100096.66;;;24.23;43.65
1652;BME280;823;49.028;8.454;2022-09-09T11:32:44;100080.47;;;24.63;42.53
1652;BME280;823;49.028;8.454;2022-09-09T11:38:11;100071.09;;;24.69;43.09
1652;BME280;823;49.028;8.454;2022-09-09T11:43:23;100071.84;;;24.61;42.51
1652;BME280;823;49.028;8.454;2022-09-09T11:48:32;100058.31;;;24.64;42.41
1652;BME280;823;49.028;8.454;2022-09-09T11:53:35;100052.81;;;24.76;42.85
1652;BME280;823;49.028;8.454;2022-09-09T11:58:55;100054.47;;;24.77;42.46
1652;BME280;823;49.028;8.454;2022-09-09T12:04:13;100049.56;;;24.64;42.50
1652;BME280;823;49.028;8.454;2022-09-09T12:09:36;100046.63;;;24.57;42.21
1652;BME280;823;49.028;8.454;2022-09-09T12:19:43;100037.25;;;25.17;41.91
1652;BME280;823;49.028;8.454;2022-09-09T12:24:52;100024.16;;;25.33;40.92
1652;BME280;823;49.028;8.454;2022-09-09T12:30:04;100027.81;;;25.32;40.15
1652;BME280;823;49.028;8.454;2022-09-09T12:40:22;100029.09;;;24.84;40.40
1652;BME280;823;49.028;8.454;2022-09-09T12:45:24;100036.72;;;24.87;40.58
1652;BME280;823;49.028;8.454;2022-09-09T12:50:31;100039.38;;;24.69;41.44
1652;BME280;823;49.028;8.454;2022-09-09T12:55:35;100031.50;;;24.77;41.11
1652;BME280;823;49.028;8.454;2022-09-09T13:00:36;100036.91;;;24.40;42.48
1652;BME280;823;49.028;8.454;2022-09-09T13:05:38;100045.00;;;24.56;41.75
1652;BME280;823;49.028;8.454;2022-09-09T13:10:51;100044.69;;;24.59;42.21
1652;BME280;823;49.028;8.454;2022-09-09T13:15:59;100048.09;;;24.24;45.05
1652;BME280;823;49.028;8.454;2022-09-09T13:21:00;100049.34;;;24.02;46.24
1652;BME280;823;49.028;8.454;2022-09-09T13:26:03;100052.56;;;23.95;46.78
1652;BME280;823;49.028;8.454;2022-09-09T13:31:18;100047.09;;;24.07;46.82
1652;BME280;823;49.028;8.454;2022-09-09T13:36:32;100028.50;;;24.26;46.88
1652;BME280;823;49.028;8.454;2022-09-09T13:41:35;100015.28;;;24.44;45.38
1652;BME280;823;49.028;8.454;2022-09-09T13:46:38;100013.84;;;24.50;44.13
1652;BME280;823;49.028;8.454;2022-09-09T13:51:48;100003.84;;;24.72;42.81
1652;BME280;823;49.028;8.454;2022-09-09T13:56:50;100010.63;;;24.56;42.86
1652;BME280;823;49.028;8.454;2022-09-09T14:01:51;100016.50;;;24.50;45.99
1652;BME280;823;49.028;8.454;2022-09-09T14:06:52;100002.53;;;24.22;46.52
1652;BME280;823;49.028;8.454;2022-09-09T14:11:53;100008.28;;;24.07;47.27
1652;BME280;823;49.028;8.454;2022-09-09T14:16:55;100037.84;;;23.83;47.71
1652;BME280;823;49.028;8.454;2022-09-09T14:21:55;100048.13;;;23.39;53.37
1652;BME280;823;49.028;8.454;2022-09-09T14:26:55;100026.19;;;22.40;57.74
1652;BME280;823;49.028;8.454;2022-09-09T14:31:56;100046.50;;;20.94;60.67
1652;BME280;823;49.028;8.454;2022-09-09T14:36:56;100055.16;;;19.95;63.86
1652;BME280;823;49.028;8.454;2022-09-09T14:41:56;100049.97;;;19.24;65.50
1652;BME280;823;49.028;8.454;2022-09-09T14:46:56;100044.47;;;19.16;66.98
1652;BME280;823;49.028;8.454;2022-09-09T14:51:58;100056.53;;;19.18;68.23
1652;BME280;823;49.028;8.454;2022-09-09T14:56:58;100094.81;;;19.32;69.58
1652;BME280;823;49.028;8.454;2022-09-09T15:01:59;100091.94;;;19.24;69.67
1652;BME280;823;49.028;8.454;2022-09-09T15:07:04;100080.63;;;19.23;69.55
1652;BME280;823;49.028;8.454;2022-09-09T15:12:04;100067.53;;;19.35;69.86
1652;BME280;823;49.028;8.454;2022-09-09T15:17:04;100053.03;;;19.53;70.33
1652;BME280;823;49.028;8.454;2022-09-09T15:22:05;100058.56;;;19.73;70.54
1652;BME280;823;49.028;8.454;2022-09-09T15:27:06;100063.84;;;19.96;70.95
1652;BME280;823;49.028;8.454;2022-09-09T15:32:06;100058.22;;;20.12;70.60
1652;BME280;823;49.028;8.454;2022-09-09T15:37:09;100068.22;;;20.29;70.25
1652;BME280;823;49.028;8.454;2022-09-09T15:42:10;100057.34;;;20.45;70.08
1652;BME280;823;49.028;8.454;2022-09-09T15:47:12;100074.31;;;20.41;68.75
1652;BME280;823;49.028;8.454;2022-09-09T15:52:15;100080.88;;;20.47;69.32
1652;BME280;823;49.028;8.454;2022-09-09T15:57:15;100086.47;;;20.53;68.74
1652;BME280;823;49.028;8.454;2022-09-09T16:02:16;100099.22;;;20.58;68.57
1652;BME280;823;49.028;8.454;2022-09-09T16:07:16;100103.06;;;20.54;68.50
1652;BME280;823;49.028;8.454;2022-09-09T16:12:16;100083.94;;;20.52;68.09
1652;BME280;823;49.028;8.454;2022-09-09T16:17:17;100082.09;;;20.31;66.52
1652;BME280;823;49.028;8.454;2022-09-09T16:22:19;100079.94;;;20.14;66.61
1652;BME280;823;49.028;8.454;2022-09-09T16:27:19;100070.75;;;20.08;66.28
1652;BME280;823;49.028;8.454;2022-09-09T16:32:19;100086.41;;;19.98;66.76
1652;BME280;823;49.028;8.454;2022-09-09T16:37:20;100100.22;;;19.89;66.96
1652;BME280;823;49.028;8.454;2022-09-09T16:42:20;100108.88;;;19.78;67.22
1652;BME280;823;49.028;8.454;2022-09-09T16:47:20;100122.47;;;19.72;67.09
1652;BME280;823;49.028;8.454;2022-09-09T16:52:21;100123.91;;;19.65;66.88
1652;BME280;823;49.028;8.454;2022-09-09T16:57:21;100131.84;;;19.52;67.62
1652;BME280;823;49.028;8.454;2022-09-09T17:02:22;100120.75;;;19.48;67.75
1652;BME280;823;49.028;8.454;2022-09-09T17:07:22;100117.97;;;19.38;68.33
1652;BME280;823;49.028;8.454;2022-09-09T17:12:23;100109.13;;;19.39;68.94
1652;BME280;823;49.028;8.454;2022-09-09T17:17:23;100106.91;;;19.46;68.96
1652;BME280;823;49.028;8.454;2022-09-09T17:22:23;100107.63;;;19.48;69.15
1652;BME280;823;49.028;8.454;2022-09-09T17:27:23;100115.72;;;19.45;68.86
1652;BME280;823;49.028;8.454;2022-09-09T17:32:24;100109.88;;;19.42;69.10
1652;BME280;823;49.028;8.454;2022-09-09T17:37:24;100103.19;;;19.37;68.74
1652;BME280;823;49.028;8.454;2022-09-09T17:42:24;100102.69;;;19.32;68.53
1652;BME280;823;49.028;8.454;2022-09-09T17:47:25;100101.34;;;19.27;68.23
1652;BME280;823;49.028;8.454;2022-09-09T17:52:26;100102.78;;;19.19;68.49
1652;BME280;823;49.028;8.454;2022-09-09T17:57:26;100106.56;;;19.15;68.73
1652;BME280;823;49.028;8.454;2022-09-09T18:02:27;100096.31;;;19.12;68.50
1652;BME280;823;49.028;8.454;2022-09-09T18:07:28;100106.41;;;19.05;68.78
1652;BME280;823;49.028;8.454;2022-09-09T18:12:29;100111.66;;;19.05;68.65
1652;BME280;823;49.028;8.454;2022-09-09T18:17:30;100113.34;;;19.07;68.74
1652;BME280;823;49.028;8.454;2022-09-09T18:22:32;100128.44;;;19.03;69.05
1652;BME280;823;49.028;8.454;2022-09-09T18:27:32;100126.88;;;19.00;69.20
1652;BME280;823;49.028;8.454;2022-09-09T18:32:33;100124.97;;;19.02;68.83
1652;BME280;823;49.028;8.454;2022-09-09T18:37:33;100122.56;;;18.99;68.77
1652;BME280;823;49.028;8.454;2022-09-09T18:42:35;100128.16;;;18.95;69.29
1652;BME280;823;49.028;8.454;2022-09-09T18:47:35;100134.09;;;18.97;68.88
1652;BME280;823;49.028;8.454;2022-09-09T18:52:36;100146.16;;;18.99;68.92
1652;BME280;823;49.028;8.454;2022-09-09T18:57:36;100151.19;;;19.02;69.08
1652;BME280;823;49.028;8.454;2022-09-09T19:02:37;100157.78;;;19.08;68.87
1652;BME280;823;49.028;8.454;2022-09-09T19:07:38;100162.91;;;19.10;68.57
1652;BME280;823;49.028;8.454;2022-09-09T19:12:40;100158.06;;;19.16;68.59
1652;BME280;823;49.028;8.454;2022-09-09T19:17:40;100168.44;;;19.18;68.58
1652;BME280;823;49.028;8.454;2022-09-09T19:22:41;100194.41;;;19.21;68.54
1652;BME280;823;49.028;8.454;2022-09-09T19:27:41;100211.38;;;19.04;68.35
1652;BME280;823;49.028;8.454;2022-09-09T19:32:44;100197.91;;;19.09;68.20
1652;BME280;823;49.028;8.454;2022-09-09T19:37:45;100187.53;;;19.07;68.61
1652;BME280;823;49.028;8.454;2022-09-09T19:42:45;100194.47;;;19.08;68.84
1652;BME280;823;49.028;8.454;2022-09-09T19:47:47;100196.22;;;19.08;68.88
1652;BME280;823;49.028;8.454;2022-09-09T19:52:47;100206.00;;;19.05;69.12
1652;BME280;823;49.028;8.454;2022-09-09T19:57:47;100209.69;;;19.03;68.88
1652;BME280;823;49.028;8.454;2022-09-09T20:02:47;100207.16;;;19.01;69.07
1652;BME280;823;49.028;8.454;2022-09-09T20:07:49;100203.69;;;19.01;69.25
1652;BME280;823;49.028;8.454;2022-09-09T20:12:50;100207.16;;;19.01;69.54
1652;BME280;823;49.028;8.454;2022-09-09T20:17:51;100213.88;;;19.05;69.45
1652;BME280;823;49.028;8.454;2022-09-09T20:22:52;100219.72;;;19.09;69.23
1652;BME280;823;49.028;8.454;2022-09-09T20:27:52;100226.53;;;19.12;69.30
1652;BME280;823;49.028;8.454;2022-09-09T20:32:53;100213.66;;;19.09;69.29
1652;BME280;823;49.028;8.454;2022-09-09T20:37:53;100210.41;;;19.05;68.84
1652;BME280;823;49.028;8.454;2022-09-09T20:42:53;100218.06;;;19.08;68.59
1652;BME280;823;49.028;8.454;2022-09-09T20:47:53;100217.22;;;19.08;69.23
1652;BME280;823;49.028;8.454;2022-09-09T20:52:56;100206.72;;;19.08;68.88
1652;BME280;823;49.028;8.454;2022-09-09T20:57:56;100206.59;;;19.09;68.97
1652;BME280;823;49.028;8.454;2022-09-09T21:02:57;100199.91;;;19.05;68.96
1652;BME280;823;49.028;8.454;2022-09-09T21:07:59;100206.31;;;19.01;68.65
1652;BME280;823;49.028;8.454;2022-09-09T21:13:00;100211.66;;;18.99;69.09
1652;BME280;823;49.028;8.454;2022-09-09T21:18:00;100213.00;;;19.05;69.16
1652;BME280;823;49.028;8.454;2022-09-09T21:23:00;100215.22;;;19.11;69.14
1652;BME280;823;49.028;8.454;2022-09-09T21:28:03;100227.03;;;19.17;69.31
1652;BME280;823;49.028;8.454;2022-09-09T21:33:03;100257.34;;;19.21;69.16
1652;BME280;823;49.028;8.454;2022-09-09T21:38:11;100268.81;;;19.07;69.07
1652;BME280;823;49.028;8.454;2022-09-09T21:43:12;100246.59;;;19.00;69.08
1652;BME280;823;49.028;8.454;2022-09-09T21:48:14;100226.16;;;18.92;69.26
1652;BME280;823;49.028;8.454;2022-09-09T21:53:15;100237.47;;;18.80;69.74
1652;BME280;823;49.028;8.454;2022-09-09T21:58:17;100235.59;;;18.69;69.78
1652;BME280;823;49.028;8.454;2022-09-09T22:03:18;100236.88;;;18.63;69.48
1652;BME280;823;49.028;8.454;2022-09-09T22:08:18;100235.50;;;18.58;69.60
1652;BME280;823;49.028;8.454;2022-09-09T22:13:19;100230.28;;;18.45;69.64
1652;BME280;823;49.028;8.454;2022-09-09T22:18:19;100234.06;;;18.41;69.69
1652;BME280;823;49.028;8.454;2022-09-09T22:23:19;100244.31;;;18.31;69.88
1652;BME280;823;49.028;8.454;2022-09-09T22:28:20;100244.44;;;18.29;69.64
1652;BME280;823;49.028;8.454;2022-09-09T22:33:21;100242.44;;;18.33;69.36
1652;BME280;823;49.028;8.454;2022-09-09T22:38:21;100237.00;;;18.36;69.63
1652;BME280;823;49.028;8.454;2022-09-09T22:43:22;100228.94;;;18.39;70.02
1652;BME280;823;49.028;8.454;2022-09-09T22:48:22;100233.84;;;18.44;69.84
1652;BME280;823;49.028;8.454;2022-09-09T22:53:23;100226.91;;;18.43;69.50
1652;BME280;823;49.028;8.454;2022-09-09T22:58:26;100224.41;;;18.41;69.43
1652;BME280;823;49.028;8.454;2022-09-09T23:03:29;100226.09;;;18.42;69.23
1652;BME280;823;49.028;8.454;2022-09-09T23:08:32;100237.94;;;18.35;69.36
1652;BME280;823;49.028;8.454;2022-09-09T23:13:34;100244.00;;;18.35;69.24
1652;BME280;823;49.028;8.454;2022-09-09T23:18:36;100244.63;;;18.39;68.90
1652;BME280;823;49.028;8.454;2022-09-09T23:23:40;100242.25;;;18.36;69.11
1652;BME280;823;49.028;8.454;2022-09-09T23:28:42;100229.88;;;18.38;68.66
1652;BME280;823;49.028;8.454;2022-09-09T23:33:43;100235.53;;;18.32;68.96
1652;BME280;823;49.028;8.454;2022-09-09T23:38:44;100237.94;;;18.22;68.97
1652;BME280;823;49.028;8.454;2022-09-09T23:43:45;100239.38;;;18.26;68.94
1652;BME280;823;49.028;8.454;2022-09-09T23:48:46;100229.88;;;18.25;68.52
1652;BME280;823;49.028;8.454;2022-09-09T23:53:52;100229.34;;;18.20;68.69
1652;BME280;823;49.028;8.454;2022-09-09T23:58:53;100226.06;;;18.16;69.27
